sensor_id;sensor_type;location;lat;lon;timestamp;temperature;humidity
1377;DHT22;682;52.502;13.488;2022-10-16T00:01:27;15.40;1.00
1377;DHT22;682;52.502;13.488;2022-10-16T00:03:55;15.40;1.00
1377;DHT22;682;52.502;13.488;2022-10-16T00:06:23;15.50;1.00
1377;DHT22;682;52.502;13.488;2022-10-16T00:08:51;15.40;1.00
1377;DHT22;682;52.502;13.488;2022-10-16T00:11:20;15.50;1.00
1377;DHT22;682;52.502;13.488;2022-10-16T00:13:48;15.50;1.00
1377;DHT22;682;52.502;13.488;2022-10-16T00:16:16;15.50;1.00
1377;DHT22;682;52.502;13.488;2022-10-16T00:18:44;15.50;1.00
1377;DHT22;682;52.502;13.488;2022-10-16T00:21:13;15.60;1.00
1377;DHT22;682;52.502;13.488;2022-10-16T00:23:40;15.60;1.00
1377;DHT22;682;52.502;13.488;2022-10-16T00:26:16;15.60;1.00
1377;DHT22;682;52.502;13.488;2022-10-16T00:28:46;15.70;1.00
1377;DHT22;682;52.502;13.488;2022-10-16T00:31:18;15.70;1.00
1377;DHT22;682;52.502;13.488;2022-10-16T00:33:46;15.80;1.00
1377;DHT22;682;52.502;13.488;2022-10-16T00:36:15;15.80;1.00
1377;DHT22;682;52.502;13.488;2022-10-16T00:38:42;15.90;1.00
1377;DHT22;682;52.502;13.488;2022-10-16T00:41:11;15.90;1.00
1377;DHT22;682;52.502;13.488;2022-10-16T00:43:40;15.90;1.00
1377;DHT22;682;52.502;13.488;2022-10-16T00:46:16;15.90;1.00
1377;DHT22;682;52.502;13.488;2022-10-16T00:48:48;15.90;1.00
1377;DHT22;682;52.502;13.488;2022-10-16T00:51:19;15.90;1.00
1377;DHT22;682;52.502;13.488;2022-10-16T00:53:46;16.00;1.00
1377;DHT22;682;52.502;13.488;2022-10-16T00:56:13;16.00;1.00
1377;DHT22;682;52.502;13.488;2022-10-16T00:58:40;16.10;1.00
1377;DHT22;682;52.502;13.488;2022-10-16T01:01:07;16.10;1.00
1377;DHT22;682;52.502;13.488;2022-10-16T01:03:36;16.00;1.00
1377;DHT22;682;52.502;13.488;2022-10-16T01:06:14;16.00;1.00
1377;DHT22;682;52.502;13.488;2022-10-16T01:08:50;15.90;1.00
1377;DHT22;682;52.502;13.488;2022-10-16T01:11:24;15.90;1.00
1377;DHT22;682;52.502;13.488;2022-10-16T01:13:55;15.90;1.00
1377;DHT22;682;52.502;13.488;2022-10-16T01:16:30;15.90;1.00
1377;DHT22;682;52.502;13.488;2022-10-16T01:19:04;15.90;1.00
1377;DHT22;682;52.502;13.488;2022-10-16T01:21:40;16.00;1.00
1377;DHT22;682;52.502;13.488;2022-10-16T01:24:15;16.00;1.00
1377;DHT22;682;52.502;13.488;2022-10-16T01:29:48;15.90;1.00
1377;DHT22;682;52.502;13.488;2022-10-16T01:32:19;15.90;1.00
1377;DHT22;682;52.502;13.488;2022-10-16T01:34:51;16.00;1.00
1377;DHT22;682;52.502;13.488;2022-10-16T01:37:25;16.00;1.00
1377;DHT22;682;52.502;13.488;2022-10-16T01:39:55;16.00;1.00
1377;DHT22;682;52.502;13.488;2022-10-16T01:42:29;16.00;1.00
1377;DHT22;682;52.502;13.488;2022-10-16T01:44:59;16.00;1.00
1377;DHT22;682;52.502;13.488;2022-10-16T01:47:27;16.00;1.00
1377;DHT22;682;52.502;13.488;2022-10-16T01:49:58;15.90;1.00
1377;DHT22;682;52.502;13.488;2022-10-16T01:52:26;15.90;1.00
1377;DHT22;682;52.502;13.488;2022-10-16T01:54:58;16.00;1.00
1377;DHT22;682;52.502;13.488;2022-10-16T01:57:29;16.00;1.00
1377;DHT22;682;52.502;13.488;2022-10-16T02:00:04;15.90;1.00
1377;DHT22;682;52.502;13.488;2022-10-16T02:02:35;15.90;1.00
1377;DHT22;682;52.502;13.488;2022-10-16T02:05:10;15.90;1.00
1377;DHT22;682;52.502;13.488;2022-10-16T02:07:53;15.90;1.00
1377;DHT22;682;52.502;13.488;2022-10-16T02:10:31;15.90;1.00
1377;DHT22;682;52.502;13.488;2022-10-16T02:13:02;15.90;1.00
1377;DHT22;682;52.502;13.488;2022-10-16T02:15:34;15.90;1.00
1377;DHT22;682;52.502;13.488;2022-10-16T02:18:09;15.90;1.00
1377;DHT22;682;52.502;13.488;2022-10-16T02:20:43;16.00;1.00
1377;DHT22;682;52.502;13.488;2022-10-16T02:23:20;16.00;1.00
1377;DHT22;682;52.502;13.488;2022-10-16T02:25:56;16.00;1.00
1377;DHT22;682;52.502;13.488;2022-10-16T02:28:32;16.10;1.00
1377;DHT22;682;52.502;13.488;2022-10-16T02:31:18;16.10;1.00
1377;DHT22;682;52.502;13.488;2022-10-16T02:33:50;16.20;1.00
1377;DHT22;682;52.502;13.488;2022-10-16T02:36:22;16.20;1.00
1377;DHT22;682;52.502;13.488;2022-10-16T02:38:49;16.30;1.00
1377;DHT22;682;52.502;13.488;2022-10-16T02:41:18;16.20;1.00
1377;DHT22;682;52.502;13.488;2022-10-16T02:43:49;16.30;1.00
1377;DHT22;682;52.502;13.488;2022-10-16T02:46:19;16.30;1.00
1377;DHT22;682;52.502;13.488;2022-10-16T02:48:48;16.20;1.00
1377;DHT22;682;52.502;13.488;2022-10-16T02:51:21;16.30;1.00
1377;DHT22;682;52.502;13.488;2022-10-16T02:53:49;16.40;1.00
1377;DHT22;682;52.502;13.488;2022-10-16T02:56:17;16.40;1.00
1377;DHT22;682;52.502;13.488;2022-10-16T02:58:50;16.40;1.00
1377;DHT22;682;52.502;13.488;2022-10-16T03:01:21;16.50;1.00
1377;DHT22;682;52.502;13.488;2022-10-16T03:03:51;16.40;1.00
1377;DHT22;682;52.502;13.488;2022-10-16T03:06:19;16.40;1.00
1377;DHT22;682;52.502;13.488;2022-10-16T03:08:46;16.30;1.00
1377;DHT22;682;52.502;13.488;2022-10-16T03:11:15;16.20;1.00
1377;DHT22;682;52.502;13.488;2022-10-16T03:13:42;16.20;1.00
1377;DHT22;682;52.502;13.488;2022-10-16T03:16:09;16.20;1.00
1377;DHT22;682;52.502;13.488;2022-10-16T03:18:37;16.20;1.00
1377;DHT22;682;52.502;13.488;2022-10-16T03:21:04;16.10;1.00
1377;DHT22;682;52.502;13.488;2022-10-16T03:23:30;16.20;1.00
1377;DHT22;682;52.502;13.488;2022-10-16T03:25:57;16.20;1.00
1377;DHT22;682;52.502;13.488;2022-10-16T03:28:24;16.10;1.00
1377;DHT22;682;52.502;13.488;2022-10-16T03:30:52;16.10;1.00
1377;DHT22;682;52.502;13.488;2022-10-16T03:33:19;16.20;1.00
1377;DHT22;682;52.502;13.488;2022-10-16T03:35:52;16.20;1.00
1377;DHT22;682;52.502;13.488;2022-10-16T03:38:20;16.20;1.00
1377;DHT22;682;52.502;13.488;2022-10-16T03:40:47;16.10;1.00
1377;DHT22;682;52.502;13.488;2022-10-16T03:43:14;16.20;1.00
1377;DHT22;682;52.502;13.488;2022-10-16T03:45:41;16.20;1.00
1377;DHT22;682;52.502;13.488;2022-10-16T03:48:08;16.20;1.00
1377;DHT22;682;52.502;13.488;2022-10-16T03:50:35;16.10;1.00
1377;DHT22;682;52.502;13.488;2022-10-16T03:53:03;16.00;1.00
1377;DHT22;682;52.502;13.488;2022-10-16T03:55:30;16.00;1.00
1377;DHT22;682;52.502;13.488;2022-10-16T03:57:57;16.00;1.00
1377;DHT22;682;52.502;13.488;2022-10-16T04:00:23;15.90;1.00
1377;DHT22;682;52.502;13.488;2022-10-16T04:02:53;15.90;1.00
1377;DHT22;682;52.502;13.488;2022-10-16T04:05:20;15.80;1.00
1377;DHT22;682;52.502;13.488;2022-10-16T04:07:47;15.80;1.00
1377;DHT22;682;52.502;13.488;2022-10-16T04:10:15;15.90;1.00
1377;DHT22;682;52.502;13.488;2022-10-16T04:12:42;15.90;1.00
1377;DHT22;682;52.502;13.488;2022-10-16T04:15:09;15.80;1.00
1377;DHT22;682;52.502;13.488;2022-10-16T04:17:36;15.80;1.00
1377;DHT22;682;52.502;13.488;2022-10-16T04:20:07;15.80;1.00
1377;DHT22;682;52.502;13.488;2022-10-16T04:22:34;15.70;1.00
1377;DHT22;682;52.502;13.488;2022-10-16T04:25:01;15.80;1.00
1377;DHT22;682;52.502;13.488;2022-10-16T04:27:29;15.80;1.00
1377;DHT22;682;52.502;13.488;2022-10-16T04:29:56;15.80;1.00
1377;DHT22;682;52.502;13.488;2022-10-16T04:32:24;15.80;1.00
1377;DHT22;682;52.502;13.488;2022-10-16T04:34:50;15.70;1.00
1377;DHT22;682;52.502;13.488;2022-10-16T04:37:17;15.70;1.00
1377;DHT22;682;52.502;13.488;2022-10-16T04:39:44;15.70;1.00
1377;DHT22;682;52.502;13.488;2022-10-16T04:42:11;15.60;1.00
1377;DHT22;682;52.502;13.488;2022-10-16T04:44:40;15.60;1.00
1377;DHT22;682;52.502;13.488;2022-10-16T04:47:07;15.60;1.00
1377;DHT22;682;52.502;13.488;2022-10-16T04:49:34;15.40;1.00
1377;DHT22;682;52.502;13.488;2022-10-16T04:52:01;15.40;1.00
1377;DHT22;682;52.502;13.488;2022-10-16T04:54:28;15.40;1.00
1377;DHT22;682;52.502;13.488;2022-10-16T04:56:55;15.40;1.00
1377;DHT22;682;52.502;13.488;2022-10-16T04:59:21;15.40;1.00
1377;DHT22;682;52.502;13.488;2022-10-16T05:01:52;15.40;1.00
1377;DHT22;682;52.502;13.488;2022-10-16T05:04:20;15.20;1.00
1377;DHT22;682;52.502;13.488;2022-10-16T05:06:48;15.20;1.00
1377;DHT22;682;52.502;13.488;2022-10-16T05:09:15;15.20;1.00
1377;DHT22;682;52.502;13.488;2022-10-16T05:11:42;15.20;1.00
1377;DHT22;682;52.502;13.488;2022-10-16T05:14:11;15.20;1.00
1377;DHT22;682;52.502;13.488;2022-10-16T05:16:44;15.20;1.00
1377;DHT22;682;52.502;13.488;2022-10-16T05:19:23;15.30;1.00
1377;DHT22;682;52.502;13.488;2022-10-16T05:21:51;15.30;1.00
1377;DHT22;682;52.502;13.488;2022-10-16T05:24:20;15.30;1.00
1377;DHT22;682;52.502;13.488;2022-10-16T05:26:53;15.30;1.00
1377;DHT22;682;52.502;13.488;2022-10-16T05:29:21;15.30;1.00
1377;DHT22;682;52.502;13.488;2022-10-16T05:31:51;15.30;1.00
1377;DHT22;682;52.502;13.488;2022-10-16T05:34:23;15.30;1.00
1377;DHT22;682;52.502;13.488;2022-10-16T05:36:50;15.20;1.00
1377;DHT22;682;52.502;13.488;2022-10-16T05:39:17;15.20;1.00
1377;DHT22;682;52.502;13.488;2022-10-16T05:41:44;15.20;1.00
1377;DHT22;682;52.502;13.488;2022-10-16T05:44:13;15.10;1.00
1377;DHT22;682;52.502;13.488;2022-10-16T05:46:40;15.10;1.00
1377;DHT22;682;52.502;13.488;2022-10-16T05:49:08;15.10;1.00
1377;DHT22;682;52.502;13.488;2022-10-16T05:51:36;15.10;1.00
1377;DHT22;682;52.502;13.488;2022-10-16T05:54:03;15.10;1.00
1377;DHT22;682;52.502;13.488;2022-10-16T05:56:30;15.20;1.00
1377;DHT22;682;52.502;13.488;2022-10-16T05:58:57;15.30;1.00
1377;DHT22;682;52.502;13.488;2022-10-16T06:01:24;15.30;1.00
1377;DHT22;682;52.502;13.488;2022-10-16T06:03:52;15.20;1.00
1377;DHT22;682;52.502;13.488;2022-10-16T06:06:21;15.20;1.00
1377;DHT22;682;52.502;13.488;2022-10-16T06:08:51;15.20;1.00
1377;DHT22;682;52.502;13.488;2022-10-16T06:11:19;15.30;1.00
1377;DHT22;682;52.502;13.488;2022-10-16T06:13:49;15.30;1.00
1377;DHT22;682;52.502;13.488;2022-10-16T06:16:16;15.30;1.00
1377;DHT22;682;52.502;13.488;2022-10-16T06:18:43;15.30;1.00
1377;DHT22;682;52.502;13.488;2022-10-16T06:21:11;15.40;1.00
1377;DHT22;682;52.502;13.488;2022-10-16T06:23:39;15.50;1.00
1377;DHT22;682;52.502;13.488;2022-10-16T06:26:10;15.60;1.00
1377;DHT22;682;52.502;13.488;2022-10-16T06:28:37;15.70;1.00
1377;DHT22;682;52.502;13.488;2022-10-16T06:31:05;15.80;1.00
1377;DHT22;682;52.502;13.488;2022-10-16T06:33:35;15.70;1.00
1377;DHT22;682;52.502;13.488;2022-10-16T06:36:03;15.60;1.00
1377;DHT22;682;52.502;13.488;2022-10-16T06:38:30;15.60;1.00
1377;DHT22;682;52.502;13.488;2022-10-16T06:40:58;15.80;1.00
1377;DHT22;682;52.502;13.488;2022-10-16T06:43:28;15.80;1.00
1377;DHT22;682;52.502;13.488;2022-10-16T06:45:57;15.90;1.00
1377;DHT22;682;52.502;13.488;2022-10-16T06:48:25;16.00;1.00
1377;DHT22;682;52.502;13.488;2022-10-16T06:50:56;16.10;1.00
1377;DHT22;682;52.502;13.488;2022-10-16T06:53:26;16.10;1.00
1377;DHT22;682;52.502;13.488;2022-10-16T06:55:53;16.20;1.00
1377;DHT22;682;52.502;13.488;2022-10-16T06:58:21;16.20;1.00
1377;DHT22;682;52.502;13.488;2022-10-16T07:00:54;16.30;1.00
1377;DHT22;682;52.502;13.488;2022-10-16T07:03:21;16.30;1.00
1377;DHT22;682;52.502;13.488;2022-10-16T07:05:51;16.40;1.00
1377;DHT22;682;52.502;13.488;2022-10-16T07:08:18;16.40;1.00
1377;DHT22;682;52.502;13.488;2022-10-16T07:10:45;16.40;1.00
1377;DHT22;682;52.502;13.488;2022-10-16T07:13:12;16.50;1.00
1377;DHT22;682;52.502;13.488;2022-10-16T07:15:40;16.70;1.00
1377;DHT22;682;52.502;13.488;2022-10-16T07:18:08;16.90;1.00
1377;DHT22;682;52.502;13.488;2022-10-16T07:20:35;17.10;1.00
1377;DHT22;682;52.502;13.488;2022-10-16T07:23:02;17.30;1.00
1377;DHT22;682;52.502;13.488;2022-10-16T07:25:29;17.50;1.00
1377;DHT22;682;52.502;13.488;2022-10-16T07:27:56;17.50;1.00
1377;DHT22;682;52.502;13.488;2022-10-16T07:30:23;17.40;1.00
1377;DHT22;682;52.502;13.488;2022-10-16T07:32:49;17.50;1.00
1377;DHT22;682;52.502;13.488;2022-10-16T07:35:18;17.60;1.00
1377;DHT22;682;52.502;13.488;2022-10-16T07:37:45;17.70;1.00
1377;DHT22;682;52.502;13.488;2022-10-16T07:40:14;17.80;1.00
1377;DHT22;682;52.502;13.488;2022-10-16T07:42:42;17.80;1.00
1377;DHT22;682;52.502;13.488;2022-10-16T07:45:09;17.80;1.00
1377;DHT22;682;52.502;13.488;2022-10-16T07:47:36;17.80;1.00
1377;DHT22;682;52.502;13.488;2022-10-16T07:50:06;17.70;1.00
1377;DHT22;682;52.502;13.488;2022-10-16T07:52:34;17.80;1.00
1377;DHT22;682;52.502;13.488;2022-10-16T07:55:01;17.80;1.00
1377;DHT22;682;52.502;13.488;2022-10-16T07:57:28;17.80;1.00
1377;DHT22;682;52.502;13.488;2022-10-16T07:59:55;17.80;1.00
1377;DHT22;682;52.502;13.488;2022-10-16T08:02:23;17.80;1.00
1377;DHT22;682;52.502;13.488;2022-10-16T08:04:49;17.80;1.00
1377;DHT22;682;52.502;13.488;2022-10-16T08:07:16;17.80;1.00
1377;DHT22;682;52.502;13.488;2022-10-16T08:09:44;17.90;1.00
1377;DHT22;682;52.502;13.488;2022-10-16T08:12:17;18.00;1.00
1377;DHT22;682;52.502;13.488;2022-10-16T08:14:44;18.10;1.00
1377;DHT22;682;52.502;13.488;2022-10-16T08:17:14;18.10;1.00
1377;DHT22;682;52.502;13.488;2022-10-16T08:19:44;18.20;1.00
1377;DHT22;682;52.502;13.488;2022-10-16T08:22:11;18.30;1.00
1377;DHT22;682;52.502;13.488;2022-10-16T08:24:38;18.40;1.00
1377;DHT22;682;52.502;13.488;2022-10-16T08:27:07;18.50;1.00
1377;DHT22;682;52.502;13.488;2022-10-16T08:29:36;18.60;1.00
1377;DHT22;682;52.502;13.488;2022-10-16T08:32:04;18.80;1.00
1377;DHT22;682;52.502;13.488;2022-10-16T08:34:31;19.00;1.00
1377;DHT22;682;52.502;13.488;2022-10-16T08:36:58;19.10;1.00
1377;DHT22;682;52.502;13.488;2022-10-16T08:39:25;19.10;1.00
1377;DHT22;682;52.502;13.488;2022-10-16T08:42:09;19.10;1.00
1377;DHT22;682;52.502;13.488;2022-10-16T08:45:08;19.10;1.00
1377;DHT22;682;52.502;13.488;2022-10-16T08:47:48;19.10;1.00
1377;DHT22;682;52.502;13.488;2022-10-16T08:50:23;19.00;1.00
1377;DHT22;682;52.502;13.488;2022-10-16T08:52:51;19.00;1.00
1377;DHT22;682;52.502;13.488;2022-10-16T08:55:28;19.00;1.00
1377;DHT22;682;52.502;13.488;2022-10-16T08:57:58;19.00;1.00
1377;DHT22;682;52.502;13.488;2022-10-16T09:00:26;19.00;1.00
1377;DHT22;682;52.502;13.488;2022-10-16T09:02:59;18.90;1.00
1377;DHT22;682;52.502;13.488;2022-10-16T09:05:51;18.90;1.00
1377;DHT22;682;52.502;13.488;2022-10-16T09:08:35;18.80;1.00
1377;DHT22;682;52.502;13.488;2022-10-16T09:11:07;18.70;1.00
1377;DHT22;682;52.502;13.488;2022-10-16T09:13:46;18.90;1.00
1377;DHT22;682;52.502;13.488;2022-10-16T09:16:19;19.40;1.00
1377;DHT22;682;52.502;13.488;2022-10-16T09:18:54;19.90;1.00
1377;DHT22;682;52.502;13.488;2022-10-16T09:21:26;20.10;1.00
1377;DHT22;682;52.502;13.488;2022-10-16T09:23:57;20.10;1.00
1377;DHT22;682;52.502;13.488;2022-10-16T09:26:25;20.00;1.00
1377;DHT22;682;52.502;13.488;2022-10-16T09:28:53;20.10;1.00
1377;DHT22;682;52.502;13.488;2022-10-16T09:31:22;20.10;1.00
1377;DHT22;682;52.502;13.488;2022-10-16T09:33:53;20.30;1.00
1377;DHT22;682;52.502;13.488;2022-10-16T09:36:22;20.50;1.00
1377;DHT22;682;52.502;13.488;2022-10-16T09:39:02;20.70;1.00
1377;DHT22;682;52.502;13.488;2022-10-16T09:41:30;20.80;1.00
1377;DHT22;682;52.502;13.488;2022-10-16T09:44:01;20.80;1.00
1377;DHT22;682;52.502;13.488;2022-10-16T09:46:32;20.80;1.00
1377;DHT22;682;52.502;13.488;2022-10-16T09:49:01;20.80;1.00
1377;DHT22;682;52.502;13.488;2022-10-16T09:51:32;21.00;1.00
1377;DHT22;682;52.502;13.488;2022-10-16T09:54:02;21.20;1.00
1377;DHT22;682;52.502;13.488;2022-10-16T09:56:32;21.30;1.00
1377;DHT22;682;52.502;13.488;2022-10-16T09:59:12;21.40;1.00
1377;DHT22;682;52.502;13.488;2022-10-16T10:01:41;21.40;1.00
1377;DHT22;682;52.502;13.488;2022-10-16T10:04:11;21.30;1.00
1377;DHT22;682;52.502;13.488;2022-10-16T10:06:43;21.20;1.00
1377;DHT22;682;52.502;13.488;2022-10-16T10:09:29;21.10;1.00
1377;DHT22;682;52.502;13.488;2022-10-16T10:11:58;21.30;1.00
1377;DHT22;682;52.502;13.488;2022-10-16T10:14:32;21.50;1.00
1377;DHT22;682;52.502;13.488;2022-10-16T10:17:17;21.50;1.00
1377;DHT22;682;52.502;13.488;2022-10-16T10:19:49;21.60;1.00
1377;DHT22;682;52.502;13.488;2022-10-16T10:22:39;21.80;1.00
1377;DHT22;682;52.502;13.488;2022-10-16T10:25:23;22.00;1.00
1377;DHT22;682;52.502;13.488;2022-10-16T10:28:18;22.00;1.00
1377;DHT22;682;52.502;13.488;2022-10-16T10:30:55;22.00;1.00
1377;DHT22;682;52.502;13.488;2022-10-16T10:33:36;22.00;1.00
1377;DHT22;682;52.502;13.488;2022-10-16T10:36:14;21.80;1.00
1377;DHT22;682;52.502;13.488;2022-10-16T10:38:51;21.70;1.00
1377;DHT22;682;52.502;13.488;2022-10-16T10:44:57;22.10;1.00
1377;DHT22;682;52.502;13.488;2022-10-16T10:47:40;21.90;1.00
1377;DHT22;682;52.502;13.488;2022-10-16T10:50:16;22.00;1.00
1377;DHT22;682;52.502;13.488;2022-10-16T10:52:56;22.30;1.00
1377;DHT22;682;52.502;13.488;2022-10-16T10:55:33;22.80;1.00
1377;DHT22;682;52.502;13.488;2022-10-16T11:01:13;23.00;1.00
1377;DHT22;682;52.502;13.488;2022-10-16T11:03:59;22.80;1.00
1377;DHT22;682;52.502;13.488;2022-10-16T11:06:35;22.80;1.00
1377;DHT22;682;52.502;13.488;2022-10-16T11:09:09;23.60;1.00
1377;DHT22;682;52.502;13.488;2022-10-16T11:11:41;24.70;1.00
1377;DHT22;682;52.502;13.488;2022-10-16T11:14:14;25.90;1.00
1377;DHT22;682;52.502;13.488;2022-10-16T11:16:44;28.20;1.00
1377;DHT22;682;52.502;13.488;2022-10-16T11:19:24;29.60;1.00
1377;DHT22;682;52.502;13.488;2022-10-16T11:21:59;30.20;1.00
1377;DHT22;682;52.502;13.488;2022-10-16T11:24:35;29.70;1.00
1377;DHT22;682;52.502;13.488;2022-10-16T11:27:08;28.40;1.00
1377;DHT22;682;52.502;13.488;2022-10-16T11:29:35;27.20;1.00
1377;DHT22;682;52.502;13.488;2022-10-16T11:32:20;26.50;1.00
1377;DHT22;682;52.502;13.488;2022-10-16T11:34:53;25.70;1.00
1377;DHT22;682;52.502;13.488;2022-10-16T11:37:25;25.20;1.00
1377;DHT22;682;52.502;13.488;2022-10-16T11:39:58;24.80;1.00
1377;DHT22;682;52.502;13.488;2022-10-16T11:42:33;25.00;1.00
1377;DHT22;682;52.502;13.488;2022-10-16T11:45:11;25.70;1.00
1377;DHT22;682;52.502;13.488;2022-10-16T11:47:48;27.00;1.00
1377;DHT22;682;52.502;13.488;2022-10-16T11:50:23;28.30;1.00
1377;DHT22;682;52.502;13.488;2022-10-16T11:52:55;29.40;1.00
1377;DHT22;682;52.502;13.488;2022-10-16T11:55:30;30.10;1.00
1377;DHT22;682;52.502;13.488;2022-10-16T11:58:03;29.90;1.00
1377;DHT22;682;52.502;13.488;2022-10-16T12:00:37;28.80;1.00
1377;DHT22;682;52.502;13.488;2022-10-16T12:03:14;27.40;1.00
1377;DHT22;682;52.502;13.488;2022-10-16T12:05:58;26.40;1.00
1377;DHT22;682;52.502;13.488;2022-10-16T12:08:30;26.30;1.00
1377;DHT22;682;52.502;13.488;2022-10-16T12:11:07;26.40;1.00
1377;DHT22;682;52.502;13.488;2022-10-16T12:13:36;25.70;1.00
1377;DHT22;682;52.502;13.488;2022-10-16T12:16:23;25.40;1.00
1377;DHT22;682;52.502;13.488;2022-10-16T12:18:50;25.10;1.00
1377;DHT22;682;52.502;13.488;2022-10-16T12:21:33;24.80;1.00
1377;DHT22;682;52.502;13.488;2022-10-16T12:24:02;24.60;1.00
1377;DHT22;682;52.502;13.488;2022-10-16T12:26:32;24.50;1.00
1377;DHT22;682;52.502;13.488;2022-10-16T12:29:13;24.30;1.00
1377;DHT22;682;52.502;13.488;2022-10-16T12:31:44;24.00;1.00
1377;DHT22;682;52.502;13.488;2022-10-16T12:34:21;23.80;1.00
1377;DHT22;682;52.502;13.488;2022-10-16T12:36:50;23.50;1.00
1377;DHT22;682;52.502;13.488;2022-10-16T12:39:22;23.40;1.00
1377;DHT22;682;52.502;13.488;2022-10-16T12:42:01;23.40;1.00
1377;DHT22;682;52.502;13.488;2022-10-16T12:44:33;23.80;1.00
1377;DHT22;682;52.502;13.488;2022-10-16T12:47:00;24.50;1.00
1377;DHT22;682;52.502;13.488;2022-10-16T12:49:34;24.90;1.00
1377;DHT22;682;52.502;13.488;2022-10-16T12:52:04;24.90;1.00
1377;DHT22;682;52.502;13.488;2022-10-16T12:54:35;25.20;1.00
1377;DHT22;682;52.502;13.488;2022-10-16T12:57:20;25.30;1.00
1377;DHT22;682;52.502;13.488;2022-10-16T12:59:56;25.40;1.00
1377;DHT22;682;52.502;13.488;2022-10-16T13:03:00;25.20;1.00
1377;DHT22;682;52.502;13.488;2022-10-16T13:06:04;24.80;1.00
1377;DHT22;682;52.502;13.488;2022-10-16T13:08:56;24.30;1.00
1377;DHT22;682;52.502;13.488;2022-10-16T13:11:35;24.30;1.00
1377;DHT22;682;52.502;13.488;2022-10-16T13:14:24;25.10;1.00
1377;DHT22;682;52.502;13.488;2022-10-16T13:17:01;26.50;1.00
1377;DHT22;682;52.502;13.488;2022-10-16T13:19:38;26.80;1.00
1377;DHT22;682;52.502;13.488;2022-10-16T13:22:14;25.90;1.00
1377;DHT22;682;52.502;13.488;2022-10-16T13:24:55;25.00;1.00
1377;DHT22;682;52.502;13.488;2022-10-16T13:27:33;24.30;1.00
1377;DHT22;682;52.502;13.488;2022-10-16T13:30:11;23.70;1.00
1377;DHT22;682;52.502;13.488;2022-10-16T13:32:39;23.40;1.00
1377;DHT22;682;52.502;13.488;2022-10-16T13:35:20;23.10;1.00
1377;DHT22;682;52.502;13.488;2022-10-16T13:37:47;22.90;1.00
1377;DHT22;682;52.502;13.488;2022-10-16T13:40:23;22.80;1.00
1377;DHT22;682;52.502;13.488;2022-10-16T13:42:50;22.80;1.00
1377;DHT22;682;52.502;13.488;2022-10-16T13:45:20;22.70;1.00
1377;DHT22;682;52.502;13.488;2022-10-16T13:47:47;22.60;1.00
1377;DHT22;682;52.502;13.488;2022-10-16T13:50:16;22.60;1.00
1377;DHT22;682;52.502;13.488;2022-10-16T13:52:43;22.50;1.00
1377;DHT22;682;52.502;13.488;2022-10-16T13:55:13;22.40;1.00
1377;DHT22;682;52.502;13.488;2022-10-16T13:57:42;22.20;1.00
1377;DHT22;682;52.502;13.488;2022-10-16T14:00:20;22.10;1.00
1377;DHT22;682;52.502;13.488;2022-10-16T14:02:53;21.90;1.00
1377;DHT22;682;52.502;13.488;2022-10-16T14:05:23;21.70;1.00
1377;DHT22;682;52.502;13.488;2022-10-16T14:07:54;21.60;1.00
1377;DHT22;682;52.502;13.488;2022-10-16T14:10:25;21.40;1.00
1377;DHT22;682;52.502;13.488;2022-10-16T14:13:05;21.40;1.00
1377;DHT22;682;52.502;13.488;2022-10-16T14:15:35;21.30;1.00
1377;DHT22;682;52.502;13.488;2022-10-16T14:18:03;21.30;1.00
1377;DHT22;682;52.502;13.488;2022-10-16T14:20:33;21.30;1.00
1377;DHT22;682;52.502;13.488;2022-10-16T14:23:01;21.30;1.00
1377;DHT22;682;52.502;13.488;2022-10-16T14:25:30;21.20;1.00
1377;DHT22;682;52.502;13.488;2022-10-16T14:28:01;21.10;1.00
1377;DHT22;682;52.502;13.488;2022-10-16T14:30:29;21.00;1.00
1377;DHT22;682;52.502;13.488;2022-10-16T14:32:58;21.00;1.00
1377;DHT22;682;52.502;13.488;2022-10-16T14:35:30;21.00;1.00
1377;DHT22;682;52.502;13.488;2022-10-16T14:37:59;20.90;1.00
1377;DHT22;682;52.502;13.488;2022-10-16T14:40:28;20.90;1.00
1377;DHT22;682;52.502;13.488;2022-10-16T14:42:56;20.80;1.00
1377;DHT22;682;52.502;13.488;2022-10-16T14:45:27;20.80;1.00
1377;DHT22;682;52.502;13.488;2022-10-16T14:47:57;20.80;1.00
1377;DHT22;682;52.502;13.488;2022-10-16T14:50:24;20.90;1.00
1377;DHT22;682;52.502;13.488;2022-10-16T14:52:51;20.90;1.00
1377;DHT22;682;52.502;13.488;2022-10-16T14:55:18;21.00;1.00
1377;DHT22;682;52.502;13.488;2022-10-16T14:57:46;20.90;1.00
1377;DHT22;682;52.502;13.488;2022-10-16T15:00:17;20.80;1.00
1377;DHT22;682;52.502;13.488;2022-10-16T15:02:49;20.80;1.00
1377;DHT22;682;52.502;13.488;2022-10-16T15:05:17;20.70;1.00
1377;DHT22;682;52.502;13.488;2022-10-16T15:07:45;20.70;1.00
1377;DHT22;682;52.502;13.488;2022-10-16T15:10:13;20.60;1.00
1377;DHT22;682;52.502;13.488;2022-10-16T15:12:42;20.60;1.00
1377;DHT22;682;52.502;13.488;2022-10-16T15:15:25;20.60;1.00
1377;DHT22;682;52.502;13.488;2022-10-16T15:17:58;20.50;1.00
1377;DHT22;682;52.502;13.488;2022-10-16T15:20:27;20.50;1.00
1377;DHT22;682;52.502;13.488;2022-10-16T15:22:55;20.40;1.00
1377;DHT22;682;52.502;13.488;2022-10-16T15:25:30;20.30;1.00
1377;DHT22;682;52.502;13.488;2022-10-16T15:27:57;20.30;1.00
1377;DHT22;682;52.502;13.488;2022-10-16T15:30:24;20.20;1.00
1377;DHT22;682;52.502;13.488;2022-10-16T15:32:51;20.20;1.00
1377;DHT22;682;52.502;13.488;2022-10-16T15:35:19;20.10;1.00
1377;DHT22;682;52.502;13.488;2022-10-16T15:37:47;20.00;1.00
1377;DHT22;682;52.502;13.488;2022-10-16T15:40:18;20.00;1.00
1377;DHT22;682;52.502;13.488;2022-10-16T15:42:46;20.00;1.00
1377;DHT22;682;52.502;13.488;2022-10-16T15:45:13;19.90;1.00
1377;DHT22;682;52.502;13.488;2022-10-16T15:47:41;19.80;1.00
1377;DHT22;682;52.502;13.488;2022-10-16T15:50:09;19.70;1.00
1377;DHT22;682;52.502;13.488;2022-10-16T15:52:37;19.60;1.00
1377;DHT22;682;52.502;13.488;2022-10-16T15:55:08;19.60;1.00
1377;DHT22;682;52.502;13.488;2022-10-16T15:57:35;19.50;1.00
1377;DHT22;682;52.502;13.488;2022-10-16T16:00:06;19.40;1.00
1377;DHT22;682;52.502;13.488;2022-10-16T16:02:35;19.40;1.00
1377;DHT22;682;52.502;13.488;2022-10-16T16:05:02;19.40;1.00
1377;DHT22;682;52.502;13.488;2022-10-16T16:07:31;19.30;1.00
1377;DHT22;682;52.502;13.488;2022-10-16T16:10:00;19.20;1.00
1377;DHT22;682;52.502;13.488;2022-10-16T16:12:27;19.20;1.00
1377;DHT22;682;52.502;13.488;2022-10-16T16:15:00;19.10;1.00
1377;DHT22;682;52.502;13.488;2022-10-16T16:17:39;19.10;1.00
1377;DHT22;682;52.502;13.488;2022-10-16T16:20:12;19.00;1.00
1377;DHT22;682;52.502;13.488;2022-10-16T16:22:39;19.00;1.00
1377;DHT22;682;52.502;13.488;2022-10-16T16:25:09;18.90;1.00
1377;DHT22;682;52.502;13.488;2022-10-16T16:27:48;18.90;1.00
1377;DHT22;682;52.502;13.488;2022-10-16T16:30:16;18.80;1.00
1377;DHT22;682;52.502;13.488;2022-10-16T16:32:46;18.80;1.00
1377;DHT22;682;52.502;13.488;2022-10-16T16:35:15;18.70;1.00
1377;DHT22;682;52.502;13.488;2022-10-16T16:37:50;18.60;1.00
1377;DHT22;682;52.502;13.488;2022-10-16T16:40:24;18.50;1.00
1377;DHT22;682;52.502;13.488;2022-10-16T16:42:59;18.50;1.00
1377;DHT22;682;52.502;13.488;2022-10-16T16:45:26;18.30;1.00
1377;DHT22;682;52.502;13.488;2022-10-16T16:47:52;18.20;1.00
1377;DHT22;682;52.502;13.488;2022-10-16T16:50:19;18.00;1.00
1377;DHT22;682;52.502;13.488;2022-10-16T16:52:46;17.90;1.00